sensor_id;sensor_type;location;lat;lon;timestamp;P1;durP1;ratioP1;P2;durP2;ratioP2
73850;SDS011;62190;51.548;5.688;2022-10-17T00:00:15;31.90;;;18.23;;
73850;SDS011;62190;51.548;5.688;2022-10-17T00:02:43;44.15;;;22.73;;
73850;SDS011;62190;51.548;5.688;2022-10-17T00:05:12;43.68;;;21.70;;
73850;SDS011;62190;51.548;5.688;2022-10-17T00:07:39;47.45;;;23.92;;
73850;SDS011;62190;51.548;5.688;2022-10-17T00:10:07;52.15;;;25.88;;
73850;SDS011;62190;51.548;5.688;2022-10-17T00:12:34;43.48;;;23.47;;
73850;SDS011;62190;51.548;5.688;2022-10-17T00:15:04;46.30;;;24.35;;
73850;SDS011;62190;51.548;5.688;2022-10-17T00:17:32;56.05;;;26.20;;
73850;SDS011;62190;51.548;5.688;2022-10-17T00:20:00;63.42;;;28.00;;
73850;SDS011;62190;51.548;5.688;2022-10-17T00:22:27;50.75;;;24.92;;
73850;SDS011;62190;51.548;5.688;2022-10-17T00:24:55;56.60;;;25.10;;
73850;SDS011;62190;51.548;5.688;2022-10-17T00:27:22;51.90;;;25.32;;
73850;SDS011;62190;51.548;5.688;2022-10-17T00:29:50;45.50;;;22.77;;
73850;SDS011;62190;51.548;5.688;2022-10-17T00:32:19;53.13;;;26.30;;
73850;SDS011;62190;51.548;5.688;2022-10-17T00:34:47;40.80;;;23.12;;
73850;SDS011;62190;51.548;5.688;2022-10-17T00:37:15;41.65;;;21.85;;
73850;SDS011;62190;51.548;5.688;2022-10-17T00:39:44;43.85;;;22.15;;
73850;SDS011;62190;51.548;5.688;2022-10-17T00:42:11;41.48;;;22.20;;
73850;SDS011;62190;51.548;5.688;2022-10-17T00:47:12;51.83;;;22.52;;
73850;SDS011;62190;51.548;5.688;2022-10-17T00:49:42;36.85;;;19.45;;
73850;SDS011;62190;51.548;5.688;2022-10-17T00:52:21;48.15;;;22.40;;
73850;SDS011;62190;51.548;5.688;2022-10-17T00:54:50;37.30;;;20.15;;
73850;SDS011;62190;51.548;5.688;2022-10-17T00:57:19;49.27;;;22.20;;
73850;SDS011;62190;51.548;5.688;2022-10-17T00:59:48;44.03;;;21.20;;
73850;SDS011;62190;51.548;5.688;2022-10-17T01:02:20;49.55;;;21.80;;
73850;SDS011;62190;51.548;5.688;2022-10-17T01:04:49;48.68;;;22.48;;
73850;SDS011;62190;51.548;5.688;2022-10-17T01:07:21;49.00;;;23.00;;
73850;SDS011;62190;51.548;5.688;2022-10-17T01:09:48;54.03;;;22.60;;
73850;SDS011;62190;51.548;5.688;2022-10-17T01:12:25;49.38;;;24.20;;
73850;SDS011;62190;51.548;5.688;2022-10-17T01:15:15;44.53;;;20.00;;
73850;SDS011;62190;51.548;5.688;2022-10-17T01:26:01;43.92;;;21.23;;
73850;SDS011;62190;51.548;5.688;2022-10-17T01:31:36;33.98;;;18.45;;
73850;SDS011;62190;51.548;5.688;2022-10-17T01:36:47;41.58;;;21.80;;
73850;SDS011;62190;51.548;5.688;2022-10-17T01:39:31;36.30;;;20.52;;
73850;SDS011;62190;51.548;5.688;2022-10-17T01:42:27;40.78;;;19.12;;
73850;SDS011;62190;51.548;5.688;2022-10-17T01:44:59;38.48;;;20.40;;
73850;SDS011;62190;51.548;5.688;2022-10-17T01:47:29;35.88;;;19.20;;
73850;SDS011;62190;51.548;5.688;2022-10-17T01:49:59;37.45;;;20.55;;
73850;SDS011;62190;51.548;5.688;2022-10-17T01:52:40;32.17;;;18.65;;
73850;SDS011;62190;51.548;5.688;2022-10-17T01:55:09;38.92;;;20.00;;
73850;SDS011;62190;51.548;5.688;2022-10-17T01:57:50;35.98;;;18.87;;
73850;SDS011;62190;51.548;5.688;2022-10-17T02:00:23;40.45;;;20.70;;
73850;SDS011;62190;51.548;5.688;2022-10-17T02:02:53;40.40;;;19.57;;
73850;SDS011;62190;51.548;5.688;2022-10-17T02:05:23;37.50;;;20.20;;
73850;SDS011;62190;51.548;5.688;2022-10-17T02:07:52;39.30;;;19.82;;
73850;SDS011;62190;51.548;5.688;2022-10-17T02:11:09;39.27;;;20.17;;
73850;SDS011;62190;51.548;5.688;2022-10-17T02:12:53;46.73;;;21.30;;
73850;SDS011;62190;51.548;5.688;2022-10-17T02:17:59;36.35;;;19.07;;
73850;SDS011;62190;51.548;5.688;2022-10-17T02:20:30;43.08;;;20.12;;
73850;SDS011;62190;51.548;5.688;2022-10-17T02:28:50;38.85;;;20.23;;
73850;SDS011;62190;51.548;5.688;2022-10-17T02:31:19;50.45;;;22.07;;
73850;SDS011;62190;51.548;5.688;2022-10-17T02:34:18;41.15;;;20.10;;
73850;SDS011;62190;51.548;5.688;2022-10-17T02:36:23;56.02;;;23.80;;
73850;SDS011;62190;51.548;5.688;2022-10-17T02:39:02;50.03;;;25.45;;
73850;SDS011;62190;51.548;5.688;2022-10-17T02:41:33;59.13;;;26.05;;
73850;SDS011;62190;51.548;5.688;2022-10-17T02:44:04;49.35;;;25.57;;
73850;SDS011;62190;51.548;5.688;2022-10-17T02:46:32;51.63;;;23.67;;
73850;SDS011;62190;51.548;5.688;2022-10-17T02:57:07;72.72;;;26.48;;
73850;SDS011;62190;51.548;5.688;2022-10-17T02:59:44;49.25;;;23.80;;
73850;SDS011;62190;51.548;5.688;2022-10-17T03:02:12;47.03;;;23.00;;
73850;SDS011;62190;51.548;5.688;2022-10-17T03:04:43;62.95;;;27.67;;
73850;SDS011;62190;51.548;5.688;2022-10-17T03:07:11;39.48;;;21.80;;
73850;SDS011;62190;51.548;5.688;2022-10-17T03:09:39;63.20;;;27.58;;
73850;SDS011;62190;51.548;5.688;2022-10-17T03:12:06;47.58;;;23.62;;
73850;SDS011;62190;51.548;5.688;2022-10-17T03:14:35;52.70;;;24.87;;
73850;SDS011;62190;51.548;5.688;2022-10-17T03:17:02;62.13;;;25.25;;
73850;SDS011;62190;51.548;5.688;2022-10-17T03:19:29;51.75;;;24.45;;
73850;SDS011;62190;51.548;5.688;2022-10-17T03:21:57;45.55;;;24.02;;
73850;SDS011;62190;51.548;5.688;2022-10-17T03:24:24;56.48;;;25.43;;
73850;SDS011;62190;51.548;5.688;2022-10-17T03:26:51;69.85;;;27.87;;
73850;SDS011;62190;51.548;5.688;2022-10-17T03:29:19;55.52;;;25.90;;
73850;SDS011;62190;51.548;5.688;2022-10-17T03:31:46;68.05;;;29.75;;
73850;SDS011;62190;51.548;5.688;2022-10-17T03:34:15;60.10;;;29.23;;
73850;SDS011;62190;51.548;5.688;2022-10-17T03:36:44;55.03;;;27.10;;
73850;SDS011;62190;51.548;5.688;2022-10-17T03:39:11;53.75;;;27.75;;
73850;SDS011;62190;51.548;5.688;2022-10-17T03:41:39;66.92;;;28.45;;
73850;SDS011;62190;51.548;5.688;2022-10-17T03:44:06;71.67;;;28.27;;
73850;SDS011;62190;51.548;5.688;2022-10-17T03:46:33;68.72;;;27.13;;
73850;SDS011;62190;51.548;5.688;2022-10-17T03:49:02;45.38;;;23.92;;
73850;SDS011;62190;51.548;5.688;2022-10-17T03:51:30;38.90;;;21.93;;
73850;SDS011;62190;51.548;5.688;2022-10-17T03:54:00;47.17;;;24.67;;
73850;SDS011;62190;51.548;5.688;2022-10-17T03:56:30;43.73;;;24.00;;
73850;SDS011;62190;51.548;5.688;2022-10-17T03:58:57;50.73;;;26.25;;
73850;SDS011;62190;51.548;5.688;2022-10-17T04:01:24;54.48;;;26.48;;
73850;SDS011;62190;51.548;5.688;2022-10-17T04:03:54;57.48;;;25.75;;
73850;SDS011;62190;51.548;5.688;2022-10-17T04:06:22;45.65;;;23.30;;
73850;SDS011;62190;51.548;5.688;2022-10-17T04:08:49;40.48;;;22.70;;
73850;SDS011;62190;51.548;5.688;2022-10-17T04:11:18;44.40;;;23.20;;
73850;SDS011;62190;51.548;5.688;2022-10-17T04:13:46;47.67;;;24.50;;
73850;SDS011;62190;51.548;5.688;2022-10-17T04:16:14;47.67;;;24.50;;
73850;SDS011;62190;51.548;5.688;2022-10-17T04:18:42;44.33;;;23.73;;
73850;SDS011;62190;51.548;5.688;2022-10-17T04:21:12;44.77;;;23.52;;
73850;SDS011;62190;51.548;5.688;2022-10-17T04:23:40;40.55;;;21.52;;
73850;SDS011;62190;51.548;5.688;2022-10-17T04:26:07;41.55;;;22.65;;
73850;SDS011;62190;51.548;5.688;2022-10-17T04:28:36;40.40;;;21.57;;
73850;SDS011;62190;51.548;5.688;2022-10-17T04:31:07;38.08;;;22.00;;
73850;SDS011;62190;51.548;5.688;2022-10-17T04:33:39;31.17;;;19.15;;
73850;SDS011;62190;51.548;5.688;2022-10-17T04:36:10;31.15;;;19.32;;
73850;SDS011;62190;51.548;5.688;2022-10-17T04:38:39;39.13;;;18.55;;
73850;SDS011;62190;51.548;5.688;2022-10-17T04:41:09;36.70;;;19.07;;
73850;SDS011;62190;51.548;5.688;2022-10-17T04:43:37;31.97;;;17.40;;
73850;SDS011;62190;51.548;5.688;2022-10-17T04:46:10;34.83;;;17.52;;
73850;SDS011;62190;51.548;5.688;2022-10-17T04:48:42;31.10;;;17.40;;
73850;SDS011;62190;51.548;5.688;2022-10-17T04:51:10;25.77;;;16.27;;
73850;SDS011;62190;51.548;5.688;2022-10-17T04:53:43;33.00;;;16.35;;
73850;SDS011;62190;51.548;5.688;2022-10-17T04:56:13;21.17;;;15.05;;
73850;SDS011;62190;51.548;5.688;2022-10-17T04:58:41;21.93;;;14.75;;
73850;SDS011;62190;51.548;5.688;2022-10-17T05:01:10;21.48;;;14.45;;
73850;SDS011;62190;51.548;5.688;2022-10-17T05:03:43;27.02;;;16.02;;
73850;SDS011;62190;51.548;5.688;2022-10-17T05:06:12;26.82;;;14.80;;
73850;SDS011;62190;51.548;5.688;2022-10-17T05:08:41;29.30;;;15.78;;
73850;SDS011;62190;51.548;5.688;2022-10-17T05:11:15;26.87;;;16.07;;
73850;SDS011;62190;51.548;5.688;2022-10-17T05:13:44;23.67;;;13.95;;
73850;SDS011;62190;51.548;5.688;2022-10-17T05:16:16;30.62;;;15.13;;
73850;SDS011;62190;51.548;5.688;2022-10-17T05:18:46;22.62;;;13.50;;
73850;SDS011;62190;51.548;5.688;2022-10-17T05:21:14;19.32;;;12.95;;
73850;SDS011;62190;51.548;5.688;2022-10-17T05:23:41;21.82;;;13.13;;
73850;SDS011;62190;51.548;5.688;2022-10-17T05:26:09;20.23;;;12.85;;
73850;SDS011;62190;51.548;5.688;2022-10-17T05:28:37;20.95;;;13.65;;
73850;SDS011;62190;51.548;5.688;2022-10-17T05:31:05;19.65;;;12.82;;
73850;SDS011;62190;51.548;5.688;2022-10-17T05:33:34;20.00;;;13.62;;
73850;SDS011;62190;51.548;5.688;2022-10-17T05:36:02;25.17;;;13.20;;
73850;SDS011;62190;51.548;5.688;2022-10-17T05:38:30;23.77;;;13.20;;
73850;SDS011;62190;51.548;5.688;2022-10-17T05:40:58;19.75;;;13.72;;
73850;SDS011;62190;51.548;5.688;2022-10-17T05:43:26;26.27;;;13.72;;
73850;SDS011;62190;51.548;5.688;2022-10-17T05:45:54;23.07;;;12.70;;
73850;SDS011;62190;51.548;5.688;2022-10-17T05:48:22;22.70;;;13.45;;
73850;SDS011;62190;51.548;5.688;2022-10-17T05:50:56;22.77;;;13.78;;
73850;SDS011;62190;51.548;5.688;2022-10-17T05:53:31;22.30;;;13.45;;
73850;SDS011;62190;51.548;5.688;2022-10-17T05:56:01;21.80;;;13.53;;
73850;SDS011;62190;51.548;5.688;2022-10-17T05:58:30;21.97;;;13.45;;
73850;SDS011;62190;51.548;5.688;2022-10-17T06:00:59;25.80;;;13.53;;
73850;SDS011;62190;51.548;5.688;2022-10-17T06:03:28;21.77;;;12.68;;
73850;SDS011;62190;51.548;5.688;2022-10-17T06:06:01;19.37;;;13.03;;
73850;SDS011;62190;51.548;5.688;2022-10-17T06:10:58;21.82;;;12.30;;
73850;SDS011;62190;51.548;5.688;2022-10-17T06:13:25;19.02;;;11.80;;
73850;SDS011;62190;51.548;5.688;2022-10-17T06:15:53;18.07;;;12.98;;
73850;SDS011;62190;51.548;5.688;2022-10-17T06:18:22;19.15;;;13.00;;
73850;SDS011;62190;51.548;5.688;2022-10-17T06:20:49;24.18;;;13.93;;
73850;SDS011;62190;51.548;5.688;2022-10-17T06:23:18;18.48;;;12.80;;
73850;SDS011;62190;51.548;5.688;2022-10-17T06:25:45;24.05;;;13.32;;
73850;SDS011;62190;51.548;5.688;2022-10-17T06:28:13;21.12;;;13.18;;
73850;SDS011;62190;51.548;5.688;2022-10-17T06:30:40;19.87;;;12.40;;
73850;SDS011;62190;51.548;5.688;2022-10-17T06:33:09;15.13;;;10.85;;
73850;SDS011;62190;51.548;5.688;2022-10-17T06:35:36;20.17;;;12.23;;
73850;SDS011;62190;51.548;5.688;2022-10-17T06:38:04;23.22;;;12.10;;
73850;SDS011;62190;51.548;5.688;2022-10-17T06:40:31;17.02;;;11.40;;
73850;SDS011;62190;51.548;5.688;2022-10-17T06:43:00;24.15;;;11.68;;
73850;SDS011;62190;51.548;5.688;2022-10-17T06:45:27;21.70;;;12.15;;
73850;SDS011;62190;51.548;5.688;2022-10-17T06:47:54;19.77;;;11.28;;
73850;SDS011;62190;51.548;5.688;2022-10-17T06:50:22;18.05;;;11.70;;
73850;SDS011;62190;51.548;5.688;2022-10-17T06:52:50;16.97;;;11.28;;
73850;SDS011;62190;51.548;5.688;2022-10-17T06:55:17;23.62;;;13.15;;
73850;SDS011;62190;51.548;5.688;2022-10-17T06:57:44;14.87;;;10.13;;
73850;SDS011;62190;51.548;5.688;2022-10-17T07:00:12;15.72;;;10.95;;
73850;SDS011;62190;51.548;5.688;2022-10-17T07:02:41;17.87;;;10.78;;
73850;SDS011;62190;51.548;5.688;2022-10-17T07:05:08;15.48;;;10.35;;
73850;SDS011;62190;51.548;5.688;2022-10-17T07:07:36;15.43;;;9.20;;
73850;SDS011;62190;51.548;5.688;2022-10-17T07:10:04;14.78;;;9.85;;
73850;SDS011;62190;51.548;5.688;2022-10-17T07:12:34;12.07;;;9.48;;
73850;SDS011;62190;51.548;5.688;2022-10-17T07:15:02;13.85;;;9.38;;
73850;SDS011;62190;51.548;5.688;2022-10-17T07:17:30;13.68;;;9.18;;
73850;SDS011;62190;51.548;5.688;2022-10-17T07:20:01;15.10;;;8.80;;
73850;SDS011;62190;51.548;5.688;2022-10-17T07:22:28;11.60;;;8.70;;
73850;SDS011;62190;51.548;5.688;2022-10-17T07:24:57;13.98;;;8.93;;
73850;SDS011;62190;51.548;5.688;2022-10-17T07:27:24;13.88;;;8.80;;
73850;SDS011;62190;51.548;5.688;2022-10-17T07:29:53;15.75;;;9.05;;
73850;SDS011;62190;51.548;5.688;2022-10-17T07:32:21;11.85;;;8.98;;
73850;SDS011;62190;51.548;5.688;2022-10-17T07:34:48;11.28;;;8.40;;
73850;SDS011;62190;51.548;5.688;2022-10-17T07:37:16;14.07;;;9.23;;
73850;SDS011;62190;51.548;5.688;2022-10-17T07:39:43;12.98;;;8.20;;
73850;SDS011;62190;51.548;5.688;2022-10-17T07:42:10;12.03;;;8.13;;
73850;SDS011;62190;51.548;5.688;2022-10-17T07:44:39;11.38;;;8.53;;
73850;SDS011;62190;51.548;5.688;2022-10-17T07:47:06;13.20;;;7.92;;
73850;SDS011;62190;51.548;5.688;2022-10-17T07:49:33;12.75;;;8.38;;
73850;SDS011;62190;51.548;5.688;2022-10-17T07:52:02;13.08;;;7.97;;
73850;SDS011;62190;51.548;5.688;2022-10-17T07:54:29;13.22;;;7.72;;
73850;SDS011;62190;51.548;5.688;2022-10-17T07:56:57;11.08;;;7.35;;
73850;SDS011;62190;51.548;5.688;2022-10-17T07:59:24;15.30;;;8.23;;
73850;SDS011;62190;51.548;5.688;2022-10-17T08:01:54;11.30;;;7.25;;
73850;SDS011;62190;51.548;5.688;2022-10-17T08:04:21;11.08;;;8.00;;
73850;SDS011;62190;51.548;5.688;2022-10-17T08:06:48;9.93;;;7.10;;
73850;SDS011;62190;51.548;5.688;2022-10-17T08:09:16;10.93;;;7.00;;
73850;SDS011;62190;51.548;5.688;2022-10-17T08:11:44;13.22;;;7.47;;
73850;SDS011;62190;51.548;5.688;2022-10-17T08:14:12;14.43;;;7.40;;
73850;SDS011;62190;51.548;5.688;2022-10-17T08:16:41;14.00;;;7.35;;
73850;SDS011;62190;51.548;5.688;2022-10-17T08:19:08;10.45;;;6.62;;
73850;SDS011;62190;51.548;5.688;2022-10-17T08:21:36;11.22;;;6.50;;
73850;SDS011;62190;51.548;5.688;2022-10-17T08:24:03;13.22;;;7.00;;
73850;SDS011;62190;51.548;5.688;2022-10-17T08:26:31;18.17;;;7.17;;
73850;SDS011;62190;51.548;5.688;2022-10-17T08:28:59;10.30;;;6.15;;
73850;SDS011;62190;51.548;5.688;2022-10-17T08:31:27;9.08;;;6.05;;
73850;SDS011;62190;51.548;5.688;2022-10-17T08:33:54;9.25;;;6.03;;
73850;SDS011;62190;51.548;5.688;2022-10-17T08:36:21;10.80;;;6.03;;
73850;SDS011;62190;51.548;5.688;2022-10-17T08:38:49;10.60;;;6.17;;
73850;SDS011;62190;51.548;5.688;2022-10-17T08:41:28;7.30;;;6.20;;
73850;SDS011;62190;51.548;5.688;2022-10-17T08:44:08;11.48;;;6.45;;
73850;SDS011;62190;51.548;5.688;2022-10-17T08:46:38;12.60;;;5.45;;
73850;SDS011;62190;51.548;5.688;2022-10-17T08:49:11;8.55;;;5.62;;
73850;SDS011;62190;51.548;5.688;2022-10-17T08:52:01;11.50;;;6.22;;
73850;SDS011;62190;51.548;5.688;2022-10-17T08:54:41;9.85;;;6.15;;
73850;SDS011;62190;51.548;5.688;2022-10-17T08:57:16;11.25;;;6.47;;
73850;SDS011;62190;51.548;5.688;2022-10-17T08:59:48;11.08;;;6.17;;
73850;SDS011;62190;51.548;5.688;2022-10-17T09:08:21;7.95;;;5.10;;
73850;SDS011;62190;51.548;5.688;2022-10-17T09:10:56;8.35;;;5.05;;
73850;SDS011;62190;51.548;5.688;2022-10-17T09:13:29;10.48;;;5.55;;
73850;SDS011;62190;51.548;5.688;2022-10-17T09:16:02;9.25;;;5.53;;
73850;SDS011;62190;51.548;5.688;2022-10-17T09:18:45;10.55;;;5.37;;
73850;SDS011;62190;51.548;5.688;2022-10-17T09:21:18;10.65;;;5.28;;
73850;SDS011;62190;51.548;5.688;2022-10-17T09:23:55;9.93;;;5.92;;
73850;SDS011;62190;51.548;5.688;2022-10-17T09:26:23;7.67;;;5.75;;
73850;SDS011;62190;51.548;5.688;2022-10-17T09:28:52;10.55;;;6.47;;
73850;SDS011;62190;51.548;5.688;2022-10-17T09:31:25;17.42;;;6.62;;
73850;SDS011;62190;51.548;5.688;2022-10-17T09:33:59;16.02;;;7.35;;
73850;SDS011;62190;51.548;5.688;2022-10-17T09:36:29;24.55;;;9.00;;
73850;SDS011;62190;51.548;5.688;2022-10-17T09:38:59;15.55;;;8.10;;
73850;SDS011;62190;51.548;5.688;2022-10-17T09:46:56;17.82;;;9.65;;
73850;SDS011;62190;51.548;5.688;2022-10-17T09:49:21;20.68;;;10.65;;
73850;SDS011;62190;51.548;5.688;2022-10-17T09:51:52;18.23;;;9.65;;
73850;SDS011;62190;51.548;5.688;2022-10-17T09:54:26;22.42;;;9.83;;
73850;SDS011;62190;51.548;5.688;2022-10-17T09:56:56;16.40;;;10.18;;
73850;SDS011;62190;51.548;5.688;2022-10-17T09:59:30;18.87;;;10.45;;
73850;SDS011;62190;51.548;5.688;2022-10-17T10:02:16;20.70;;;11.57;;
73850;SDS011;62190;51.548;5.688;2022-10-17T10:04:52;20.12;;;12.05;;
73850;SDS011;62190;51.548;5.688;2022-10-17T10:07:26;19.73;;;11.53;;
73850;SDS011;62190;51.548;5.688;2022-10-17T10:09:58;20.05;;;11.45;;
73850;SDS011;62190;51.548;5.688;2022-10-17T10:12:33;21.17;;;12.10;;
73850;SDS011;62190;51.548;5.688;2022-10-17T10:14:57;19.40;;;11.55;;
73850;SDS011;62190;51.548;5.688;2022-10-17T10:17:26;23.60;;;13.28;;
73850;SDS011;62190;51.548;5.688;2022-10-17T10:19:55;22.77;;;14.25;;
73850;SDS011;62190;51.548;5.688;2022-10-17T10:22:23;21.87;;;13.68;;
73850;SDS011;62190;51.548;5.688;2022-10-17T10:27:35;23.98;;;13.70;;
73850;SDS011;62190;51.548;5.688;2022-10-17T10:30:15;20.92;;;12.40;;
73850;SDS011;62190;51.548;5.688;2022-10-17T10:32:44;26.55;;;12.35;;
73850;SDS011;62190;51.548;5.688;2022-10-17T10:35:18;17.85;;;11.90;;
73850;SDS011;62190;51.548;5.688;2022-10-17T10:37:54;20.08;;;11.65;;
73850;SDS011;62190;51.548;5.688;2022-10-17T10:43:02;18.40;;;12.60;;
73850;SDS011;62190;51.548;5.688;2022-10-17T10:51:00;21.17;;;13.83;;
73850;SDS011;62190;51.548;5.688;2022-10-17T10:53:43;17.55;;;11.57;;
73850;SDS011;62190;51.548;5.688;2022-10-17T10:56:54;21.10;;;10.15;;
73850;SDS011;62190;51.548;5.688;2022-10-17T10:59:36;15.43;;;10.30;;
73850;SDS011;62190;51.548;5.688;2022-10-17T11:02:39;12.82;;;9.58;;
73850;SDS011;62190;51.548;5.688;2022-10-17T11:05:39;19.35;;;10.53;;
73850;SDS011;62190;51.548;5.688;2022-10-17T11:08:12;22.95;;;10.58;;
73850;SDS011;62190;51.548;5.688;2022-10-17T11:15:51;19.98;;;10.98;;
73850;SDS011;62190;51.548;5.688;2022-10-17T11:18:21;17.02;;;11.30;;
73850;SDS011;62190;51.548;5.688;2022-10-17T11:21:04;18.90;;;12.33;;
73850;SDS011;62190;51.548;5.688;2022-10-17T11:24:00;24.00;;;13.53;;
73850;SDS011;62190;51.548;5.688;2022-10-17T11:26:32;16.02;;;11.05;;
73850;SDS011;62190;51.548;5.688;2022-10-17T11:29:02;17.62;;;10.38;;
73850;SDS011;62190;51.548;5.688;2022-10-17T11:31:34;14.90;;;10.50;;
73850;SDS011;62190;51.548;5.688;2022-10-17T11:34:05;16.45;;;10.20;;
73850;SDS011;62190;51.548;5.688;2022-10-17T11:36:41;18.00;;;11.35;;
73850;SDS011;62190;51.548;5.688;2022-10-17T11:39:21;21.42;;;11.55;;
73850;SDS011;62190;51.548;5.688;2022-10-17T11:41:53;15.30;;;11.63;;
73850;SDS011;62190;51.548;5.688;2022-10-17T11:44:35;16.35;;;10.60;;
73850;SDS011;62190;51.548;5.688;2022-10-17T11:47:05;21.00;;;12.30;;
73850;SDS011;62190;51.548;5.688;2022-10-17T11:49:52;16.40;;;12.47;;
73850;SDS011;62190;51.548;5.688;2022-10-17T11:54:55;21.65;;;14.15;;
73850;SDS011;62190;51.548;5.688;2022-10-17T11:57:41;20.90;;;14.25;;
73850;SDS011;62190;51.548;5.688;2022-10-17T12:05:59;23.05;;;14.30;;
73850;SDS011;62190;51.548;5.688;2022-10-17T12:08:34;25.27;;;15.48;;
73850;SDS011;62190;51.548;5.688;2022-10-17T12:13:53;33.80;;;16.75;;
73850;SDS011;62190;51.548;5.688;2022-10-17T12:24:28;22.40;;;13.55;;
73850;SDS011;62190;51.548;5.688;2022-10-17T12:27:21;21.82;;;15.58;;
73850;SDS011;62190;51.548;5.688;2022-10-17T12:29:56;19.07;;;13.80;;
73850;SDS011;62190;51.548;5.688;2022-10-17T12:32:26;25.52;;;14.33;;
73850;SDS011;62190;51.548;5.688;2022-10-17T12:34:54;19.60;;;14.47;;
73850;SDS011;62190;51.548;5.688;2022-10-17T12:42:58;16.67;;;11.55;;
73850;SDS011;62190;51.548;5.688;2022-10-17T12:51:13;15.95;;;10.43;;
73850;SDS011;62190;51.548;5.688;2022-10-17T12:56:36;13.32;;;9.38;;
73850;SDS011;62190;51.548;5.688;2022-10-17T12:59:07;13.28;;;10.45;;
73850;SDS011;62190;51.548;5.688;2022-10-17T13:01:36;17.23;;;10.90;;
73850;SDS011;62190;51.548;5.688;2022-10-17T13:04:04;16.32;;;10.63;;
73850;SDS011;62190;51.548;5.688;2022-10-17T13:06:35;14.20;;;11.48;;
73850;SDS011;62190;51.548;5.688;2022-10-17T13:09:48;17.73;;;11.05;;
73850;SDS011;62190;51.548;5.688;2022-10-17T13:11:38;22.10;;;14.28;;
73850;SDS011;62190;51.548;5.688;2022-10-17T13:14:10;19.20;;;12.98;;
73850;SDS011;62190;51.548;5.688;2022-10-17T13:16:54;18.12;;;12.13;;
73850;SDS011;62190;51.548;5.688;2022-10-17T13:19:28;18.62;;;10.72;;
73850;SDS011;62190;51.548;5.688;2022-10-17T13:22:00;15.38;;;10.18;;
73850;SDS011;62190;51.548;5.688;2022-10-17T13:24:32;17.32;;;11.33;;
73850;SDS011;62190;51.548;5.688;2022-10-17T13:27:02;14.93;;;10.32;;
73850;SDS011;62190;51.548;5.688;2022-10-17T13:29:30;17.10;;;10.75;;
73850;SDS011;62190;51.548;5.688;2022-10-17T13:32:04;20.05;;;11.40;;
73850;SDS011;62190;51.548;5.688;2022-10-17T13:34:30;13.20;;;11.12;;
73850;SDS011;62190;51.548;5.688;2022-10-17T13:37:00;20.65;;;10.25;;
73850;SDS011;62190;51.548;5.688;2022-10-17T13:39:32;20.50;;;12.10;;
73850;SDS011;62190;51.548;5.688;2022-10-17T13:42:02;16.85;;;11.88;;
73850;SDS011;62190;51.548;5.688;2022-10-17T13:44:32;16.20;;;9.83;;
73850;SDS011;62190;51.548;5.688;2022-10-17T13:47:01;21.68;;;10.95;;
73850;SDS011;62190;51.548;5.688;2022-10-17T13:49:34;18.45;;;11.93;;
73850;SDS011;62190;51.548;5.688;2022-10-17T13:52:14;23.60;;;12.33;;
73850;SDS011;62190;51.548;5.688;2022-10-17T13:54:48;22.25;;;12.15;;
73850;SDS011;62190;51.548;5.688;2022-10-17T13:57:28;19.70;;;12.58;;
73850;SDS011;62190;51.548;5.688;2022-10-17T13:59:49;15.00;;;11.28;;
73850;SDS011;62190;51.548;5.688;2022-10-17T14:02:21;18.70;;;12.60;;
73850;SDS011;62190;51.548;5.688;2022-10-17T14:07:41;23.15;;;12.82;;
73850;SDS011;62190;51.548;5.688;2022-10-17T14:10:23;16.85;;;13.55;;
73850;SDS011;62190;51.548;5.688;2022-10-17T14:12:58;20.85;;;12.82;;
73850;SDS011;62190;51.548;5.688;2022-10-17T14:15:27;18.50;;;13.93;;
73850;SDS011;62190;51.548;5.688;2022-10-17T14:18:01;21.40;;;12.33;;
73850;SDS011;62190;51.548;5.688;2022-10-17T14:20:29;20.62;;;14.70;;
73850;SDS011;62190;51.548;5.688;2022-10-17T14:22:57;26.35;;;13.68;;
73850;SDS011;62190;51.548;5.688;2022-10-17T14:25:29;21.48;;;13.75;;
73850;SDS011;62190;51.548;5.688;2022-10-17T14:30:40;21.42;;;14.07;;
73850;SDS011;62190;51.548;5.688;2022-10-17T14:33:14;19.30;;;13.00;;
73850;SDS011;62190;51.548;5.688;2022-10-17T14:35:53;23.02;;;14.55;;
73850;SDS011;62190;51.548;5.688;2022-10-17T14:38:23;19.42;;;13.72;;
73850;SDS011;62190;51.548;5.688;2022-10-17T14:40:51;18.82;;;13.13;;
73850;SDS011;62190;51.548;5.688;2022-10-17T14:43:22;22.77;;;14.10;;
73850;SDS011;62190;51.548;5.688;2022-10-17T14:45:51;21.02;;;14.60;;
73850;SDS011;62190;51.548;5.688;2022-10-17T14:48:20;22.60;;;14.13;;
73850;SDS011;62190;51.548;5.688;2022-10-17T14:51:06;20.57;;;13.50;;
73850;SDS011;62190;51.548;5.688;2022-10-17T14:53:36;24.50;;;14.28;;
73850;SDS011;62190;51.548;5.688;2022-10-17T14:56:17;14.58;;;11.83;;
73850;SDS011;62190;51.548;5.688;2022-10-17T14:58:49;23.10;;;12.80;;
73850;SDS011;62190;51.548;5.688;2022-10-17T15:01:17;17.23;;;13.88;;
73850;SDS011;62190;51.548;5.688;2022-10-17T15:03:45;21.55;;;13.38;;
73850;SDS011;62190;51.548;5.688;2022-10-17T15:06:17;17.90;;;13.28;;
73850;SDS011;62190;51.548;5.688;2022-10-17T15:08:52;23.95;;;14.73;;
73850;SDS011;62190;51.548;5.688;2022-10-17T15:11:19;24.37;;;14.70;;
73850;SDS011;62190;51.548;5.688;2022-10-17T15:13:47;19.00;;;15.25;;
73850;SDS011;62190;51.548;5.688;2022-10-17T15:16:16;24.67;;;14.93;;
73850;SDS011;62190;51.548;5.688;2022-10-17T15:18:47;22.80;;;16.65;;
73850;SDS011;62190;51.548;5.688;2022-10-17T15:21:17;29.80;;;17.67;;
73850;SDS011;62190;51.548;5.688;2022-10-17T15:23:46;23.85;;;17.95;;
73850;SDS011;62190;51.548;5.688;2022-10-17T15:26:14;23.25;;;17.20;;
73850;SDS011;62190;51.548;5.688;2022-10-17T15:28:50;25.65;;;17.77;;
73850;SDS011;62190;51.548;5.688;2022-10-17T15:31:18;24.57;;;17.37;;
73850;SDS011;62190;51.548;5.688;2022-10-17T15:33:47;26.85;;;18.75;;
73850;SDS011;62190;51.548;5.688;2022-10-17T15:38:55;25.90;;;17.57;;
73850;SDS011;62190;51.548;5.688;2022-10-17T15:41:24;24.10;;;17.17;;
73850;SDS011;62190;51.548;5.688;2022-10-17T15:43:52;23.95;;;17.95;;
73850;SDS011;62190;51.548;5.688;2022-10-17T15:46:21;20.90;;;16.15;;
73850;SDS011;62190;51.548;5.688;2022-10-17T15:48:51;25.05;;;18.15;;
73850;SDS011;62190;51.548;5.688;2022-10-17T15:51:19;36.13;;;16.80;;
73850;SDS011;62190;51.548;5.688;2022-10-17T15:53:47;22.35;;;16.40;;
73850;SDS011;62190;51.548;5.688;2022-10-17T15:56:19;25.37;;;17.30;;
73850;SDS011;62190;51.548;5.688;2022-10-17T15:58:59;24.37;;;16.73;;
73850;SDS011;62190;51.548;5.688;2022-10-17T16:01:31;23.57;;;17.30;;
73850;SDS011;62190;51.548;5.688;2022-10-17T16:03:59;22.98;;;15.95;;
73850;SDS011;62190;51.548;5.688;2022-10-17T16:06:26;24.87;;;17.27;;
73850;SDS011;62190;51.548;5.688;2022-10-17T16:08:55;26.93;;;17.37;;
73850;SDS011;62190;51.548;5.688;2022-10-17T16:11:27;29.00;;;17.10;;
73850;SDS011;62190;51.548;5.688;2022-10-17T16:13:59;22.80;;;16.48;;
73850;SDS011;62190;51.548;5.688;2022-10-17T16:16:27;25.15;;;17.07;;
73850;SDS011;62190;51.548;5.688;2022-10-17T16:18:55;31.65;;;20.32;;
73850;SDS011;62190;51.548;5.688;2022-10-17T16:21:27;29.32;;;19.70;;
73850;SDS011;62190;51.548;5.688;2022-10-17T16:23:56;38.40;;;18.12;;
73850;SDS011;62190;51.548;5.688;2022-10-17T16:26:23;35.08;;;18.90;;
73850;SDS011;62190;51.548;5.688;2022-10-17T16:28:51;28.38;;;19.70;;